sensor_id;sensor_type;location;lat;lon;timestamp;P1;durP1;ratioP1;P2;durP2;ratioP2
9449;SDS011;4763;48.370;10.874;2023-05-07T00:00:32;6.40;;;3.60;;
9449;SDS011;4763;48.370;10.874;2023-05-07T00:03:20;6.70;;;3.00;;
9449;SDS011;4763;48.370;10.874;2023-05-07T00:06:07;4.93;;;3.30;;
9449;SDS011;4763;48.370;10.874;2023-05-07T00:08:57;4.20;;;3.17;;
9449;SDS011;4763;48.370;10.874;2023-05-07T00:11:46;5.53;;;3.40;;
9449;SDS011;4763;48.370;10.874;2023-05-07T00:14:33;10.53;;;3.43;;
9449;SDS011;4763;48.370;10.874;2023-05-07T00:17:20;10.97;;;3.70;;
9449;SDS011;4763;48.370;10.874;2023-05-07T00:20:07;5.13;;;3.40;;
9449;SDS011;4763;48.370;10.874;2023-05-07T00:22:55;4.47;;;3.83;;
9449;SDS011;4763;48.370;10.874;2023-05-07T00:25:43;5.33;;;3.37;;
9449;SDS011;4763;48.370;10.874;2023-05-07T00:28:30;4.20;;;3.30;;
9449;SDS011;4763;48.370;10.874;2023-05-07T00:31:17;4.60;;;3.30;;
9449;SDS011;4763;48.370;10.874;2023-05-07T00:34:04;3.87;;;3.07;;
9449;SDS011;4763;48.370;10.874;2023-05-07T00:36:52;4.20;;;3.30;;
9449;SDS011;4763;48.370;10.874;2023-05-07T00:39:39;5.17;;;3.33;;
9449;SDS011;4763;48.370;10.874;2023-05-07T00:42:27;5.17;;;3.63;;
9449;SDS011;4763;48.370;10.874;2023-05-07T00:45:14;4.57;;;3.43;;
9449;SDS011;4763;48.370;10.874;2023-05-07T00:48:02;4.67;;;3.50;;
9449;SDS011;4763;48.370;10.874;2023-05-07T00:50:49;6.17;;;3.50;;
9449;SDS011;4763;48.370;10.874;2023-05-07T00:53:37;3.43;;;2.87;;
9449;SDS011;4763;48.370;10.874;2023-05-07T00:56:25;7.03;;;3.77;;
9449;SDS011;4763;48.370;10.874;2023-05-07T00:59:14;5.80;;;4.17;;
9449;SDS011;4763;48.370;10.874;2023-05-07T01:02:01;5.07;;;3.90;;
9449;SDS011;4763;48.370;10.874;2023-05-07T01:04:49;5.80;;;4.10;;
9449;SDS011;4763;48.370;10.874;2023-05-07T01:07:36;4.90;;;3.40;;
9449;SDS011;4763;48.370;10.874;2023-05-07T01:10:25;3.40;;;3.10;;
9449;SDS011;4763;48.370;10.874;2023-05-07T01:13:12;4.90;;;4.00;;
9449;SDS011;4763;48.370;10.874;2023-05-07T01:16:02;7.13;;;3.67;;
9449;SDS011;4763;48.370;10.874;2023-05-07T01:18:50;4.87;;;3.53;;
9449;SDS011;4763;48.370;10.874;2023-05-07T01:21:37;7.23;;;3.97;;
9449;SDS011;4763;48.370;10.874;2023-05-07T01:24:26;6.87;;;4.07;;
9449;SDS011;4763;48.370;10.874;2023-05-07T01:27:14;6.33;;;3.70;;
9449;SDS011;4763;48.370;10.874;2023-05-07T01:30:01;4.70;;;3.37;;
9449;SDS011;4763;48.370;10.874;2023-05-07T01:32:49;5.50;;;4.20;;
9449;SDS011;4763;48.370;10.874;2023-05-07T01:35:38;6.10;;;3.83;;
9449;SDS011;4763;48.370;10.874;2023-05-07T01:38:30;7.13;;;3.73;;
9449;SDS011;4763;48.370;10.874;2023-05-07T01:41:19;4.07;;;3.17;;
9449;SDS011;4763;48.370;10.874;2023-05-07T01:44:06;4.07;;;3.27;;
9449;SDS011;4763;48.370;10.874;2023-05-07T01:46:54;5.10;;;3.87;;
9449;SDS011;4763;48.370;10.874;2023-05-07T01:49:43;5.70;;;3.40;;
9449;SDS011;4763;48.370;10.874;2023-05-07T01:52:30;5.40;;;3.40;;
9449;SDS011;4763;48.370;10.874;2023-05-07T01:55:17;5.37;;;3.60;;
9449;SDS011;4763;48.370;10.874;2023-05-07T01:58:06;3.30;;;3.00;;
9449;SDS011;4763;48.370;10.874;2023-05-07T02:00:53;6.13;;;3.50;;
9449;SDS011;4763;48.370;10.874;2023-05-07T02:03:40;5.53;;;3.03;;
9449;SDS011;4763;48.370;10.874;2023-05-07T02:06:27;4.37;;;2.73;;
9449;SDS011;4763;48.370;10.874;2023-05-07T02:09:14;6.00;;;3.50;;
9449;SDS011;4763;48.370;10.874;2023-05-07T02:12:01;3.47;;;3.03;;
9449;SDS011;4763;48.370;10.874;2023-05-07T02:14:50;4.97;;;3.70;;
9449;SDS011;4763;48.370;10.874;2023-05-07T02:17:38;5.03;;;2.73;;
9449;SDS011;4763;48.370;10.874;2023-05-07T02:20:44;3.43;;;2.87;;
9449;SDS011;4763;48.370;10.874;2023-05-07T02:23:31;3.80;;;3.27;;
9449;SDS011;4763;48.370;10.874;2023-05-07T02:26:18;5.93;;;3.27;;
9449;SDS011;4763;48.370;10.874;2023-05-07T02:29:06;4.20;;;3.10;;
9449;SDS011;4763;48.370;10.874;2023-05-07T02:31:55;4.87;;;3.67;;
9449;SDS011;4763;48.370;10.874;2023-05-07T02:34:42;3.73;;;3.00;;
9449;SDS011;4763;48.370;10.874;2023-05-07T02:37:29;4.90;;;3.37;;
9449;SDS011;4763;48.370;10.874;2023-05-07T02:40:16;4.97;;;3.17;;
9449;SDS011;4763;48.370;10.874;2023-05-07T02:43:03;4.43;;;3.70;;
9449;SDS011;4763;48.370;10.874;2023-05-07T02:45:59;5.40;;;3.20;;
9449;SDS011;4763;48.370;10.874;2023-05-07T02:48:48;3.50;;;3.10;;
9449;SDS011;4763;48.370;10.874;2023-05-07T02:51:35;10.80;;;3.37;;
9449;SDS011;4763;48.370;10.874;2023-05-07T02:54:22;5.07;;;3.50;;
9449;SDS011;4763;48.370;10.874;2023-05-07T02:57:10;4.10;;;2.97;;
9449;SDS011;4763;48.370;10.874;2023-05-07T02:59:57;4.30;;;3.70;;
9449;SDS011;4763;48.370;10.874;2023-05-07T03:02:45;5.63;;;4.40;;
9449;SDS011;4763;48.370;10.874;2023-05-07T03:05:33;5.50;;;3.97;;
9449;SDS011;4763;48.370;10.874;2023-05-07T03:08:21;4.60;;;3.60;;
9449;SDS011;4763;48.370;10.874;2023-05-07T03:11:08;8.87;;;4.63;;
9449;SDS011;4763;48.370;10.874;2023-05-07T03:13:55;4.87;;;3.93;;
9449;SDS011;4763;48.370;10.874;2023-05-07T03:16:42;20.00;;;4.10;;
9449;SDS011;4763;48.370;10.874;2023-05-07T03:19:29;5.07;;;4.00;;
9449;SDS011;4763;48.370;10.874;2023-05-07T03:22:18;5.50;;;4.43;;
9449;SDS011;4763;48.370;10.874;2023-05-07T03:25:06;5.43;;;3.63;;
9449;SDS011;4763;48.370;10.874;2023-05-07T03:27:54;6.37;;;3.83;;
9449;SDS011;4763;48.370;10.874;2023-05-07T03:30:40;4.10;;;3.50;;
9449;SDS011;4763;48.370;10.874;2023-05-07T03:33:28;5.40;;;3.80;;
9449;SDS011;4763;48.370;10.874;2023-05-07T03:36:15;4.80;;;3.70;;
9449;SDS011;4763;48.370;10.874;2023-05-07T03:39:03;5.33;;;3.80;;
9449;SDS011;4763;48.370;10.874;2023-05-07T03:41:50;5.37;;;4.00;;
9449;SDS011;4763;48.370;10.874;2023-05-07T03:44:37;5.43;;;3.83;;
9449;SDS011;4763;48.370;10.874;2023-05-07T03:47:24;5.20;;;4.10;;
9449;SDS011;4763;48.370;10.874;2023-05-07T03:50:11;7.03;;;4.23;;
9449;SDS011;4763;48.370;10.874;2023-05-07T03:52:59;5.50;;;3.83;;
9449;SDS011;4763;48.370;10.874;2023-05-07T03:55:47;7.10;;;3.47;;
9449;SDS011;4763;48.370;10.874;2023-05-07T03:58:34;4.93;;;3.50;;
9449;SDS011;4763;48.370;10.874;2023-05-07T04:01:21;5.93;;;4.10;;
9449;SDS011;4763;48.370;10.874;2023-05-07T04:04:08;5.63;;;3.97;;
9449;SDS011;4763;48.370;10.874;2023-05-07T04:06:55;4.47;;;3.60;;
9449;SDS011;4763;48.370;10.874;2023-05-07T04:09:42;4.17;;;3.30;;
9449;SDS011;4763;48.370;10.874;2023-05-07T04:12:31;4.63;;;3.27;;
9449;SDS011;4763;48.370;10.874;2023-05-07T04:15:18;4.77;;;4.10;;
9449;SDS011;4763;48.370;10.874;2023-05-07T04:18:05;5.37;;;3.90;;
9449;SDS011;4763;48.370;10.874;2023-05-07T04:20:52;3.80;;;3.40;;
9449;SDS011;4763;48.370;10.874;2023-05-07T04:23:39;4.63;;;3.00;;
9449;SDS011;4763;48.370;10.874;2023-05-07T04:26:26;5.00;;;3.37;;
9449;SDS011;4763;48.370;10.874;2023-05-07T04:29:15;6.50;;;3.97;;
9449;SDS011;4763;48.370;10.874;2023-05-07T04:32:02;5.07;;;3.80;;
9449;SDS011;4763;48.370;10.874;2023-05-07T04:34:49;5.23;;;3.80;;
9449;SDS011;4763;48.370;10.874;2023-05-07T04:37:36;7.20;;;4.20;;
9449;SDS011;4763;48.370;10.874;2023-05-07T04:40:23;6.67;;;3.63;;
9449;SDS011;4763;48.370;10.874;2023-05-07T04:43:10;4.83;;;3.87;;
9449;SDS011;4763;48.370;10.874;2023-05-07T04:45:58;7.10;;;4.03;;
9449;SDS011;4763;48.370;10.874;2023-05-07T04:48:45;4.07;;;3.60;;
9449;SDS011;4763;48.370;10.874;2023-05-07T04:51:32;13.13;;;4.93;;
9449;SDS011;4763;48.370;10.874;2023-05-07T04:54:19;5.53;;;4.03;;
9449;SDS011;4763;48.370;10.874;2023-05-07T04:57:06;5.43;;;4.23;;
9449;SDS011;4763;48.370;10.874;2023-05-07T04:59:53;4.90;;;3.73;;
9449;SDS011;4763;48.370;10.874;2023-05-07T05:02:42;6.17;;;3.93;;
9449;SDS011;4763;48.370;10.874;2023-05-07T05:05:29;8.60;;;3.63;;
9449;SDS011;4763;48.370;10.874;2023-05-07T05:08:16;6.60;;;4.40;;
9449;SDS011;4763;48.370;10.874;2023-05-07T05:11:03;4.90;;;3.90;;
9449;SDS011;4763;48.370;10.874;2023-05-07T05:13:50;5.57;;;4.00;;
9449;SDS011;4763;48.370;10.874;2023-05-07T05:16:37;7.10;;;4.13;;
9449;SDS011;4763;48.370;10.874;2023-05-07T05:19:26;5.43;;;3.83;;
9449;SDS011;4763;48.370;10.874;2023-05-07T05:22:13;4.83;;;4.00;;
9449;SDS011;4763;48.370;10.874;2023-05-07T05:25:00;5.47;;;4.17;;
9449;SDS011;4763;48.370;10.874;2023-05-07T05:27:47;5.97;;;4.40;;
9449;SDS011;4763;48.370;10.874;2023-05-07T05:30:35;4.97;;;4.47;;
9449;SDS011;4763;48.370;10.874;2023-05-07T05:33:22;5.27;;;4.10;;
9449;SDS011;4763;48.370;10.874;2023-05-07T05:36:10;4.63;;;4.00;;
9449;SDS011;4763;48.370;10.874;2023-05-07T05:38:58;5.83;;;3.93;;
9449;SDS011;4763;48.370;10.874;2023-05-07T05:41:45;4.60;;;3.97;;
9449;SDS011;4763;48.370;10.874;2023-05-07T05:44:33;5.83;;;4.43;;
9449;SDS011;4763;48.370;10.874;2023-05-07T05:47:26;8.17;;;5.80;;
9449;SDS011;4763;48.370;10.874;2023-05-07T05:50:13;7.10;;;6.13;;
9449;SDS011;4763;48.370;10.874;2023-05-07T05:53:04;8.47;;;5.00;;
9449;SDS011;4763;48.370;10.874;2023-05-07T05:56:02;8.20;;;4.50;;
9449;SDS011;4763;48.370;10.874;2023-05-07T05:58:50;7.57;;;5.73;;
9449;SDS011;4763;48.370;10.874;2023-05-07T06:01:40;8.13;;;5.43;;
9449;SDS011;4763;48.370;10.874;2023-05-07T06:04:32;7.37;;;5.10;;
9449;SDS011;4763;48.370;10.874;2023-05-07T06:07:33;10.37;;;5.17;;
9449;SDS011;4763;48.370;10.874;2023-05-07T06:10:24;6.83;;;4.67;;
9449;SDS011;4763;48.370;10.874;2023-05-07T06:13:13;6.17;;;5.07;;
9449;SDS011;4763;48.370;10.874;2023-05-07T06:16:00;8.40;;;4.87;;
9449;SDS011;4763;48.370;10.874;2023-05-07T06:18:47;5.73;;;4.40;;
9449;SDS011;4763;48.370;10.874;2023-05-07T06:21:34;5.90;;;4.33;;
9449;SDS011;4763;48.370;10.874;2023-05-07T06:24:21;5.77;;;4.27;;
9449;SDS011;4763;48.370;10.874;2023-05-07T06:27:13;4.23;;;3.70;;
9449;SDS011;4763;48.370;10.874;2023-05-07T06:30:00;5.23;;;4.23;;
9449;SDS011;4763;48.370;10.874;2023-05-07T06:32:47;4.80;;;4.00;;
9449;SDS011;4763;48.370;10.874;2023-05-07T06:35:38;5.27;;;3.97;;
9449;SDS011;4763;48.370;10.874;2023-05-07T06:38:25;6.20;;;4.03;;
9449;SDS011;4763;48.370;10.874;2023-05-07T06:41:12;7.20;;;4.90;;
9449;SDS011;4763;48.370;10.874;2023-05-07T06:44:00;6.20;;;4.23;;
9449;SDS011;4763;48.370;10.874;2023-05-07T06:46:47;7.37;;;4.10;;
9449;SDS011;4763;48.370;10.874;2023-05-07T06:49:35;4.50;;;3.93;;
9449;SDS011;4763;48.370;10.874;2023-05-07T06:52:25;5.70;;;4.53;;
9449;SDS011;4763;48.370;10.874;2023-05-07T06:55:41;6.10;;;4.47;;
9449;SDS011;4763;48.370;10.874;2023-05-07T06:58:28;5.67;;;4.03;;
9449;SDS011;4763;48.370;10.874;2023-05-07T07:01:17;7.77;;;4.40;;
9449;SDS011;4763;48.370;10.874;2023-05-07T07:04:05;4.37;;;3.97;;
9449;SDS011;4763;48.370;10.874;2023-05-07T07:06:53;7.63;;;4.60;;
9449;SDS011;4763;48.370;10.874;2023-05-07T07:09:44;5.80;;;3.63;;
9449;SDS011;4763;48.370;10.874;2023-05-07T07:12:31;4.63;;;4.20;;
9449;SDS011;4763;48.370;10.874;2023-05-07T07:15:19;5.30;;;4.43;;
9449;SDS011;4763;48.370;10.874;2023-05-07T07:18:08;4.40;;;4.00;;
9449;SDS011;4763;48.370;10.874;2023-05-07T07:20:55;6.77;;;4.20;;
9449;SDS011;4763;48.370;10.874;2023-05-07T07:23:43;6.70;;;3.97;;
9449;SDS011;4763;48.370;10.874;2023-05-07T07:26:44;8.73;;;4.73;;
9449;SDS011;4763;48.370;10.874;2023-05-07T07:29:31;5.70;;;4.00;;
9449;SDS011;4763;48.370;10.874;2023-05-07T07:32:28;4.83;;;4.00;;
9449;SDS011;4763;48.370;10.874;2023-05-07T07:35:23;4.60;;;4.00;;
9449;SDS011;4763;48.370;10.874;2023-05-07T07:38:15;4.43;;;4.00;;
9449;SDS011;4763;48.370;10.874;2023-05-07T07:41:05;4.70;;;3.70;;
9449;SDS011;4763;48.370;10.874;2023-05-07T07:44:03;5.47;;;3.93;;
9449;SDS011;4763;48.370;10.874;2023-05-07T07:47:08;5.70;;;4.03;;
9449;SDS011;4763;48.370;10.874;2023-05-07T07:53:37;5.00;;;3.87;;
9449;SDS011;4763;48.370;10.874;2023-05-07T07:56:24;8.43;;;4.20;;
9449;SDS011;4763;48.370;10.874;2023-05-07T07:59:18;5.73;;;3.47;;
9449;SDS011;4763;48.370;10.874;2023-05-07T08:02:08;4.17;;;3.70;;
9449;SDS011;4763;48.370;10.874;2023-05-07T08:04:56;4.43;;;3.20;;
9449;SDS011;4763;48.370;10.874;2023-05-07T08:07:48;3.85;;;3.45;;
9449;SDS011;4763;48.370;10.874;2023-05-07T08:10:55;4.60;;;3.10;;
9449;SDS011;4763;48.370;10.874;2023-05-07T08:13:43;4.68;;;3.40;;
9449;SDS011;4763;48.370;10.874;2023-05-07T08:16:35;3.92;;;3.50;;
9449;SDS011;4763;48.370;10.874;2023-05-07T08:19:27;6.25;;;3.13;;
9449;SDS011;4763;48.370;10.874;2023-05-07T08:22:14;3.25;;;2.95;;
9449;SDS011;4763;48.370;10.874;2023-05-07T08:25:08;3.17;;;2.85;;
9449;SDS011;4763;48.370;10.874;2023-05-07T08:28:29;3.25;;;2.85;;
9449;SDS011;4763;48.370;10.874;2023-05-07T08:31:20;4.63;;;3.65;;
9449;SDS011;4763;48.370;10.874;2023-05-07T08:34:11;3.65;;;3.20;;
9449;SDS011;4763;48.370;10.874;2023-05-07T08:36:58;6.68;;;2.45;;
9449;SDS011;4763;48.370;10.874;2023-05-07T08:39:47;3.78;;;2.35;;
9449;SDS011;4763;48.370;10.874;2023-05-07T08:42:36;3.20;;;2.40;;
9449;SDS011;4763;48.370;10.874;2023-05-07T08:45:34;2.80;;;2.50;;
9449;SDS011;4763;48.370;10.874;2023-05-07T08:48:25;4.07;;;3.10;;
9449;SDS011;4763;48.370;10.874;2023-05-07T08:51:15;7.55;;;3.05;;
9449;SDS011;4763;48.370;10.874;2023-05-07T08:54:05;3.55;;;2.65;;
9449;SDS011;4763;48.370;10.874;2023-05-07T08:56:53;3.92;;;2.92;;
9449;SDS011;4763;48.370;10.874;2023-05-07T08:59:44;6.45;;;2.38;;
9449;SDS011;4763;48.370;10.874;2023-05-07T09:02:31;4.75;;;2.10;;
9449;SDS011;4763;48.370;10.874;2023-05-07T09:05:19;6.47;;;2.60;;
9449;SDS011;4763;48.370;10.874;2023-05-07T09:08:06;2.22;;;1.60;;
9449;SDS011;4763;48.370;10.874;2023-05-07T09:10:54;2.63;;;2.10;;
9449;SDS011;4763;48.370;10.874;2023-05-07T09:13:42;6.57;;;2.67;;
9449;SDS011;4763;48.370;10.874;2023-05-07T09:16:49;2.67;;;2.28;;
9449;SDS011;4763;48.370;10.874;2023-05-07T09:19:38;2.47;;;1.92;;
9449;SDS011;4763;48.370;10.874;2023-05-07T09:22:29;3.50;;;2.33;;
9449;SDS011;4763;48.370;10.874;2023-05-07T09:25:21;2.33;;;2.00;;
9449;SDS011;4763;48.370;10.874;2023-05-07T09:28:15;2.95;;;2.38;;
9449;SDS011;4763;48.370;10.874;2023-05-07T09:31:05;2.78;;;2.00;;
9449;SDS011;4763;48.370;10.874;2023-05-07T09:33:54;7.55;;;2.22;;
9449;SDS011;4763;48.370;10.874;2023-05-07T09:36:41;2.58;;;2.30;;
9449;SDS011;4763;48.370;10.874;2023-05-07T09:39:38;3.85;;;2.20;;
9449;SDS011;4763;48.370;10.874;2023-05-07T09:42:26;4.88;;;1.75;;
9449;SDS011;4763;48.370;10.874;2023-05-07T09:45:13;1.30;;;1.20;;
9449;SDS011;4763;48.370;10.874;2023-05-07T09:48:00;7.22;;;1.80;;
9449;SDS011;4763;48.370;10.874;2023-05-07T09:50:56;1.67;;;1.27;;
9449;SDS011;4763;48.370;10.874;2023-05-07T09:53:48;3.75;;;1.58;;
9449;SDS011;4763;48.370;10.874;2023-05-07T09:56:38;2.92;;;1.10;;
9449;SDS011;4763;48.370;10.874;2023-05-07T09:59:27;1.48;;;1.30;;
9449;SDS011;4763;48.370;10.874;2023-05-07T10:02:37;0.90;;;0.90;;
9449;SDS011;4763;48.370;10.874;2023-05-07T10:05:34;1.23;;;0.82;;
9449;SDS011;4763;48.370;10.874;2023-05-07T10:08:25;3.20;;;1.00;;
9449;SDS011;4763;48.370;10.874;2023-05-07T10:11:19;3.00;;;1.60;;
9449;SDS011;4763;48.370;10.874;2023-05-07T10:14:13;1.42;;;0.90;;
9449;SDS011;4763;48.370;10.874;2023-05-07T10:20:06;1.08;;;0.95;;
9449;SDS011;4763;48.370;10.874;2023-05-07T10:22:54;3.10;;;1.05;;
9449;SDS011;4763;48.370;10.874;2023-05-07T10:29:10;1.33;;;1.23;;
9449;SDS011;4763;48.370;10.874;2023-05-07T10:32:16;1.33;;;1.23;;
9449;SDS011;4763;48.370;10.874;2023-05-07T10:35:20;2.45;;;1.17;;
9449;SDS011;4763;48.370;10.874;2023-05-07T10:38:26;9.82;;;1.23;;
9449;SDS011;4763;48.370;10.874;2023-05-07T10:41:16;3.13;;;1.48;;
9449;SDS011;4763;48.370;10.874;2023-05-07T10:44:06;1.15;;;1.00;;
9449;SDS011;4763;48.370;10.874;2023-05-07T10:47:06;1.25;;;0.73;;
9449;SDS011;4763;48.370;10.874;2023-05-07T10:53:22;1.10;;;1.00;;
9449;SDS011;4763;48.370;10.874;2023-05-07T10:56:26;2.38;;;0.98;;
9449;SDS011;4763;48.370;10.874;2023-05-07T11:05:47;2.17;;;1.08;;
9449;SDS011;4763;48.370;10.874;2023-05-07T11:08:54;1.52;;;1.00;;
9449;SDS011;4763;48.370;10.874;2023-05-07T11:11:49;1.10;;;1.00;;
9449;SDS011;4763;48.370;10.874;2023-05-07T11:14:44;0.70;;;0.70;;
9449;SDS011;4763;48.370;10.874;2023-05-07T11:17:32;1.40;;;1.13;;
9449;SDS011;4763;48.370;10.874;2023-05-07T11:26:46;0.90;;;0.88;;
9449;SDS011;4763;48.370;10.874;2023-05-07T11:29:36;1.00;;;0.95;;
9449;SDS011;4763;48.370;10.874;2023-05-07T11:32:23;2.58;;;1.52;;
9449;SDS011;4763;48.370;10.874;2023-05-07T11:35:11;1.38;;;1.25;;
9449;SDS011;4763;48.370;10.874;2023-05-07T11:38:01;1.50;;;1.00;;
9449;SDS011;4763;48.370;10.874;2023-05-07T11:40:49;1.50;;;1.05;;
9449;SDS011;4763;48.370;10.874;2023-05-07T11:43:40;2.85;;;0.98;;
9449;SDS011;4763;48.370;10.874;2023-05-07T11:46:42;1.02;;;0.93;;
9449;SDS011;4763;48.370;10.874;2023-05-07T11:49:30;3.10;;;1.00;;
9449;SDS011;4763;48.370;10.874;2023-05-07T11:52:17;1.10;;;0.90;;
9449;SDS011;4763;48.370;10.874;2023-05-07T11:55:06;1.10;;;1.00;;
9449;SDS011;4763;48.370;10.874;2023-05-07T11:57:54;1.98;;;1.13;;
9449;SDS011;4763;48.370;10.874;2023-05-07T12:00:49;1.52;;;1.00;;
9449;SDS011;4763;48.370;10.874;2023-05-07T12:03:36;2.67;;;1.25;;
9449;SDS011;4763;48.370;10.874;2023-05-07T12:06:23;4.18;;;1.50;;
9449;SDS011;4763;48.370;10.874;2023-05-07T12:09:22;1.55;;;1.10;;
9449;SDS011;4763;48.370;10.874;2023-05-07T12:12:10;0.98;;;0.90;;
9449;SDS011;4763;48.370;10.874;2023-05-07T12:14:57;1.35;;;1.08;;
9449;SDS011;4763;48.370;10.874;2023-05-07T12:17:46;1.30;;;1.20;;
9449;SDS011;4763;48.370;10.874;2023-05-07T12:20:34;1.20;;;1.10;;
9449;SDS011;4763;48.370;10.874;2023-05-07T12:23:22;0.90;;;0.90;;
9449;SDS011;4763;48.370;10.874;2023-05-07T12:26:09;2.42;;;1.05;;
9449;SDS011;4763;48.370;10.874;2023-05-07T12:28:56;1.42;;;1.33;;
9449;SDS011;4763;48.370;10.874;2023-05-07T12:31:44;2.55;;;0.98;;
9449;SDS011;4763;48.370;10.874;2023-05-07T12:34:32;1.30;;;0.98;;
9449;SDS011;4763;48.370;10.874;2023-05-07T12:37:22;1.30;;;1.20;;
9449;SDS011;4763;48.370;10.874;2023-05-07T12:40:11;2.25;;;1.17;;
9449;SDS011;4763;48.370;10.874;2023-05-07T12:42:59;1.00;;;0.80;;
9449;SDS011;4763;48.370;10.874;2023-05-07T12:45:46;2.80;;;1.42;;
9449;SDS011;4763;48.370;10.874;2023-05-07T12:48:36;1.58;;;1.10;;
9449;SDS011;4763;48.370;10.874;2023-05-07T12:51:25;2.00;;;1.23;;
9449;SDS011;4763;48.370;10.874;2023-05-07T12:54:14;1.65;;;1.08;;
9449;SDS011;4763;48.370;10.874;2023-05-07T12:57:14;3.85;;;1.70;;
9449;SDS011;4763;48.370;10.874;2023-05-07T13:00:05;0.95;;;0.90;;
9449;SDS011;4763;48.370;10.874;2023-05-07T13:02:54;1.50;;;1.30;;
9449;SDS011;4763;48.370;10.874;2023-05-07T13:05:41;2.85;;;1.33;;
9449;SDS011;4763;48.370;10.874;2023-05-07T13:08:30;1.20;;;1.10;;
9449;SDS011;4763;48.370;10.874;2023-05-07T13:11:20;3.28;;;0.95;;
9449;SDS011;4763;48.370;10.874;2023-05-07T13:14:07;2.75;;;1.38;;
9449;SDS011;4763;48.370;10.874;2023-05-07T13:16:55;1.10;;;1.00;;
9449;SDS011;4763;48.370;10.874;2023-05-07T13:19:42;3.30;;;1.10;;
9449;SDS011;4763;48.370;10.874;2023-05-07T13:22:29;8.75;;;1.55;;
9449;SDS011;4763;48.370;10.874;2023-05-07T13:25:17;0.98;;;0.90;;
9449;SDS011;4763;48.370;10.874;2023-05-07T13:28:04;1.30;;;1.20;;
9449;SDS011;4763;48.370;10.874;2023-05-07T13:30:52;2.50;;;1.38;;
9449;SDS011;4763;48.370;10.874;2023-05-07T13:33:40;1.20;;;1.10;;
9449;SDS011;4763;48.370;10.874;2023-05-07T13:36:29;2.35;;;1.30;;
9449;SDS011;4763;48.370;10.874;2023-05-07T13:39:18;1.30;;;1.20;;
9449;SDS011;4763;48.370;10.874;2023-05-07T13:42:06;1.50;;;1.08;;
9449;SDS011;4763;48.370;10.874;2023-05-07T13:44:54;6.78;;;1.88;;
9449;SDS011;4763;48.370;10.874;2023-05-07T13:47:41;1.98;;;1.25;;
9449;SDS011;4763;48.370;10.874;2023-05-07T13:50:29;2.30;;;1.42;;
9449;SDS011;4763;48.370;10.874;2023-05-07T13:53:16;1.30;;;1.13;;
9449;SDS011;4763;48.370;10.874;2023-05-07T13:56:04;2.95;;;1.00;;
9449;SDS011;4763;48.370;10.874;2023-05-07T13:58:52;1.20;;;1.02;;
9449;SDS011;4763;48.370;10.874;2023-05-07T14:01:40;1.30;;;1.20;;
9449;SDS011;4763;48.370;10.874;2023-05-07T14:04:27;1.50;;;1.20;;
9449;SDS011;4763;48.370;10.874;2023-05-07T14:07:14;1.67;;;1.27;;
9449;SDS011;4763;48.370;10.874;2023-05-07T14:10:01;2.42;;;1.48;;
9449;SDS011;4763;48.370;10.874;2023-05-07T14:12:48;1.13;;;1.02;;
9449;SDS011;4763;48.370;10.874;2023-05-07T14:15:37;3.15;;;1.63;;
9449;SDS011;4763;48.370;10.874;2023-05-07T14:18:27;1.50;;;1.35;;
9449;SDS011;4763;48.370;10.874;2023-05-07T14:21:15;1.83;;;1.20;;
9449;SDS011;4763;48.370;10.874;2023-05-07T14:24:02;2.60;;;1.10;;
9449;SDS011;4763;48.370;10.874;2023-05-07T14:26:49;1.55;;;1.17;;
9449;SDS011;4763;48.370;10.874;2023-05-07T14:29:36;1.77;;;1.30;;
9449;SDS011;4763;48.370;10.874;2023-05-07T14:32:29;2.53;;;1.27;;
9449;SDS011;4763;48.370;10.874;2023-05-07T14:35:16;1.23;;;1.02;;
9449;SDS011;4763;48.370;10.874;2023-05-07T14:38:03;2.50;;;1.20;;
9449;SDS011;4763;48.370;10.874;2023-05-07T14:40:50;1.75;;;1.10;;
9449;SDS011;4763;48.370;10.874;2023-05-07T14:43:41;1.25;;;1.10;;
9449;SDS011;4763;48.370;10.874;2023-05-07T14:46:28;2.30;;;1.40;;
9449;SDS011;4763;48.370;10.874;2023-05-07T14:49:16;1.88;;;1.38;;
9449;SDS011;4763;48.370;10.874;2023-05-07T14:52:04;0.98;;;0.98;;
9449;SDS011;4763;48.370;10.874;2023-05-07T14:54:52;1.50;;;1.33;;
9449;SDS011;4763;48.370;10.874;2023-05-07T14:57:39;4.72;;;1.50;;
9449;SDS011;4763;48.370;10.874;2023-05-07T15:00:27;1.73;;;1.38;;
9449;SDS011;4763;48.370;10.874;2023-05-07T15:03:14;2.05;;;1.50;;
9449;SDS011;4763;48.370;10.874;2023-05-07T15:06:03;2.03;;;1.23;;
9449;SDS011;4763;48.370;10.874;2023-05-07T15:08:51;1.95;;;1.13;;
9449;SDS011;4763;48.370;10.874;2023-05-07T15:11:38;1.40;;;1.30;;
9449;SDS011;4763;48.370;10.874;2023-05-07T15:14:25;2.42;;;1.15;;
9449;SDS011;4763;48.370;10.874;2023-05-07T15:17:12;3.42;;;1.40;;
9449;SDS011;4763;48.370;10.874;2023-05-07T15:20:00;2.30;;;1.30;;
9449;SDS011;4763;48.370;10.874;2023-05-07T15:22:50;1.10;;;1.00;;
9449;SDS011;4763;48.370;10.874;2023-05-07T15:25:37;1.52;;;1.23;;
9449;SDS011;4763;48.370;10.874;2023-05-07T15:28:24;2.00;;;1.55;;
9449;SDS011;4763;48.370;10.874;2023-05-07T15:31:12;1.35;;;1.23;;
9449;SDS011;4763;48.370;10.874;2023-05-07T15:33:59;2.00;;;1.33;;
9449;SDS011;4763;48.370;10.874;2023-05-07T15:36:47;2.58;;;1.50;;
9449;SDS011;4763;48.370;10.874;2023-05-07T15:39:35;1.35;;;1.20;;
9449;SDS011;4763;48.370;10.874;2023-05-07T15:42:22;1.65;;;1.25;;
9449;SDS011;4763;48.370;10.874;2023-05-07T15:45:09;2.47;;;2.00;;
9449;SDS011;4763;48.370;10.874;2023-05-07T15:47:57;2.55;;;1.55;;
9449;SDS011;4763;48.370;10.874;2023-05-07T15:50:44;1.92;;;1.65;;
9449;SDS011;4763;48.370;10.874;2023-05-07T15:53:31;1.95;;;1.48;;
9449;SDS011;4763;48.370;10.874;2023-05-07T15:56:20;1.15;;;1.02;;
9449;SDS011;4763;48.370;10.874;2023-05-07T15:59:07;1.27;;;1.17;;
9449;SDS011;4763;48.370;10.874;2023-05-07T16:01:57;2.20;;;1.70;;
9449;SDS011;4763;48.370;10.874;2023-05-07T16:04:44;1.40;;;1.30;;
9449;SDS011;4763;48.370;10.874;2023-05-07T16:07:31;1.75;;;1.55;;
9449;SDS011;4763;48.370;10.874;2023-05-07T16:10:18;3.15;;;1.65;;
9449;SDS011;4763;48.370;10.874;2023-05-07T16:13:07;1.95;;;1.55;;
9449;SDS011;4763;48.370;10.874;2023-05-07T16:15:54;2.08;;;1.40;;
9449;SDS011;4763;48.370;10.874;2023-05-07T16:18:42;3.90;;;1.50;;
9449;SDS011;4763;48.370;10.874;2023-05-07T16:21:29;2.75;;;1.20;;
9449;SDS011;4763;48.370;10.874;2023-05-07T16:24:17;3.40;;;1.70;;
9449;SDS011;4763;48.370;10.874;2023-05-07T16:27:05;4.88;;;2.03;;
9449;SDS011;4763;48.370;10.874;2023-05-07T16:29:53;2.38;;;2.00;;
9449;SDS011;4763;48.370;10.874;2023-05-07T16:32:40;1.60;;;1.50;;
9449;SDS011;4763;48.370;10.874;2023-05-07T16:35:27;3.97;;;2.90;;
9449;SDS011;4763;48.370;10.874;2023-05-07T16:38:15;4.18;;;2.72;;
9449;SDS011;4763;48.370;10.874;2023-05-07T16:41:02;3.60;;;2.80;;
9449;SDS011;4763;48.370;10.874;2023-05-07T16:43:50;3.47;;;2.28;;
9449;SDS011;4763;48.370;10.874;2023-05-07T16:46:38;7.40;;;2.35;;
9449;SDS011;4763;48.370;10.874;2023-05-07T16:49:25;2.50;;;1.88;;
9449;SDS011;4763;48.370;10.874;2023-05-07T16:52:12;1.63;;;1.52;;
9449;SDS011;4763;48.370;10.874;2023-05-07T16:54:59;2.53;;;1.58;;
9449;SDS011;4763;48.370;10.874;2023-05-07T16:57:46;1.90;;;1.40;;
9449;SDS011;4763;48.370;10.874;2023-05-07T17:00:34;1.38;;;1.25;;
9449;SDS011;4763;48.370;10.874;2023-05-07T17:03:22;1.42;;;1.33;;
9449;SDS011;4763;48.370;10.874;2023-05-07T17:06:09;2.40;;;1.67;;
9449;SDS011;4763;48.370;10.874;2023-05-07T17:08:59;8.23;;;3.80;;
9449;SDS011;4763;48.370;10.874;2023-05-07T17:11:46;3.65;;;2.83;;
9449;SDS011;4763;48.370;10.874;2023-05-07T17:14:33;2.90;;;2.05;;
9449;SDS011;4763;48.370;10.874;2023-05-07T17:17:20;3.88;;;1.95;;
9449;SDS011;4763;48.370;10.874;2023-05-07T17:20:09;4.70;;;1.80;;
9449;SDS011;4763;48.370;10.874;2023-05-07T17:22:57;1.85;;;1.67;;
9449;SDS011;4763;48.370;10.874;2023-05-07T17:25:44;1.48;;;1.38;;
9449;SDS011;4763;48.370;10.874;2023-05-07T17:28:32;1.75;;;1.33;;
9449;SDS011;4763;48.370;10.874;2023-05-07T17:31:20;3.20;;;1.50;;
9449;SDS011;4763;48.370;10.874;2023-05-07T17:34:07;1.50;;;1.40;;
9449;SDS011;4763;48.370;10.874;2023-05-07T17:36:57;1.70;;;1.25;;
9449;SDS011;4763;48.370;10.874;2023-05-07T17:39:44;2.38;;;1.58;;